sensor_id;sensor_type;location;lat;lon;timestamp;temperature;humidity
72756;SHT30;60881;55.002;73.232;2022-08-19T00:01:48;10.50;71.57
72756;SHT30;60881;55.002;73.232;2022-08-19T00:04:17;10.51;71.81
72756;SHT30;60881;55.002;73.232;2022-08-19T00:06:46;10.51;71.57
72756;SHT30;60881;55.002;73.232;2022-08-19T00:09:15;10.48;71.62
72756;SHT30;60881;55.002;73.232;2022-08-19T00:11:43;10.48;71.86
72756;SHT30;60881;55.002;73.232;2022-08-19T00:14:12;10.50;71.49
72756;SHT30;60881;55.002;73.232;2022-08-19T00:16:41;10.54;71.30
72756;SHT30;60881;55.002;73.232;2022-08-19T00:19:09;10.51;71.62
72756;SHT30;60881;55.002;73.232;2022-08-19T00:21:45;10.52;71.39
72756;SHT30;60881;55.002;73.232;2022-08-19T00:24:13;10.52;71.60
72756;SHT30;60881;55.002;73.232;2022-08-19T00:26:51;10.55;71.63
72756;SHT30;60881;55.002;73.232;2022-08-19T00:29:20;10.54;71.52
72756;SHT30;60881;55.002;73.232;2022-08-19T00:31:48;10.55;71.77
72756;SHT30;60881;55.002;73.232;2022-08-19T00:34:16;10.54;71.54
72756;SHT30;60881;55.002;73.232;2022-08-19T00:36:43;10.57;71.41
72756;SHT30;60881;55.002;73.232;2022-08-19T00:39:10;10.57;71.39
72756;SHT30;60881;55.002;73.232;2022-08-19T00:41:40;10.60;71.20
72756;SHT30;60881;55.002;73.232;2022-08-19T00:44:09;10.62;71.50
72756;SHT30;60881;55.002;73.232;2022-08-19T00:46:39;10.62;71.45
72756;SHT30;60881;55.002;73.232;2022-08-19T00:49:10;10.65;71.65
72756;SHT30;60881;55.002;73.232;2022-08-19T00:51:43;10.65;71.40
72756;SHT30;60881;55.002;73.232;2022-08-19T00:54:10;10.62;71.68
72756;SHT30;60881;55.002;73.232;2022-08-19T00:56:37;10.60;71.98
72756;SHT30;60881;55.002;73.232;2022-08-19T00:59:05;10.65;71.81
72756;SHT30;60881;55.002;73.232;2022-08-19T01:01:45;10.71;71.93
72756;SHT30;60881;55.002;73.232;2022-08-19T01:04:13;10.73;71.78
72756;SHT30;60881;55.002;73.232;2022-08-19T01:06:43;10.78;71.64
72756;SHT30;60881;55.002;73.232;2022-08-19T01:09:10;10.78;71.73
72756;SHT30;60881;55.002;73.232;2022-08-19T01:11:39;10.79;71.52
72756;SHT30;60881;55.002;73.232;2022-08-19T01:14:07;10.84;71.37
72756;SHT30;60881;55.002;73.232;2022-08-19T01:16:34;10.89;71.53
72756;SHT30;60881;55.002;73.232;2022-08-19T01:19:12;10.88;71.77
72756;SHT30;60881;55.002;73.232;2022-08-19T01:24:43;10.94;71.55
72756;SHT30;60881;55.002;73.232;2022-08-19T01:27:11;10.96;71.69
72756;SHT30;60881;55.002;73.232;2022-08-19T01:29:41;10.99;71.51
72756;SHT30;60881;55.002;73.232;2022-08-19T01:32:14;11.02;71.28
72756;SHT30;60881;55.002;73.232;2022-08-19T01:34:41;11.02;71.19
72756;SHT30;60881;55.002;73.232;2022-08-19T01:37:13;11.06;71.22
72756;SHT30;60881;55.002;73.232;2022-08-19T01:39:42;11.06;71.05
72756;SHT30;60881;55.002;73.232;2022-08-19T01:42:09;11.06;71.01
72756;SHT30;60881;55.002;73.232;2022-08-19T01:44:41;11.04;71.05
72756;SHT30;60881;55.002;73.232;2022-08-19T01:47:08;11.05;71.26
72756;SHT30;60881;55.002;73.232;2022-08-19T01:49:36;11.06;71.21
72756;SHT30;60881;55.002;73.232;2022-08-19T01:52:04;11.05;71.26
72756;SHT30;60881;55.002;73.232;2022-08-19T01:54:32;11.06;71.56
72756;SHT30;60881;55.002;73.232;2022-08-19T01:57:09;11.06;71.23
72756;SHT30;60881;55.002;73.232;2022-08-19T01:59:36;11.08;70.41
72756;SHT30;60881;55.002;73.232;2022-08-19T02:02:05;11.04;70.70
72756;SHT30;60881;55.002;73.232;2022-08-19T02:04:36;11.05;71.22
72756;SHT30;60881;55.002;73.232;2022-08-19T02:07:07;11.02;70.70
72756;SHT30;60881;55.002;73.232;2022-08-19T02:09:34;11.04;70.76
72756;SHT30;60881;55.002;73.232;2022-08-19T02:12:01;11.02;70.10
72756;SHT30;60881;55.002;73.232;2022-08-19T02:14:29;11.01;70.68
72756;SHT30;60881;55.002;73.232;2022-08-19T02:16:55;11.05;70.52
72756;SHT30;60881;55.002;73.232;2022-08-19T02:19:25;11.08;70.37
72756;SHT30;60881;55.002;73.232;2022-08-19T02:21:52;11.12;70.14
72756;SHT30;60881;55.002;73.232;2022-08-19T02:24:19;11.12;70.44
72756;SHT30;60881;55.002;73.232;2022-08-19T02:26:45;11.14;70.33
72756;SHT30;60881;55.002;73.232;2022-08-19T02:29:11;11.15;70.22
72756;SHT30;60881;55.002;73.232;2022-08-19T02:31:38;11.19;70.19
72756;SHT30;60881;55.002;73.232;2022-08-19T02:34:04;11.23;70.91
72756;SHT30;60881;55.002;73.232;2022-08-19T02:36:32;11.28;70.71
72756;SHT30;60881;55.002;73.232;2022-08-19T02:38:58;11.35;70.68
72756;SHT30;60881;55.002;73.232;2022-08-19T02:41:28;11.39;70.01
72756;SHT30;60881;55.002;73.232;2022-08-19T02:43:55;11.46;70.02
72756;SHT30;60881;55.002;73.232;2022-08-19T02:46:27;11.44;69.31
72756;SHT30;60881;55.002;73.232;2022-08-19T02:49:00;11.42;69.16
72756;SHT30;60881;55.002;73.232;2022-08-19T02:51:31;11.43;69.47
72756;SHT30;60881;55.002;73.232;2022-08-19T02:53:59;11.46;68.92
72756;SHT30;60881;55.002;73.232;2022-08-19T02:56:27;11.50;69.12
72756;SHT30;60881;55.002;73.232;2022-08-19T02:58:55;11.52;68.91
72756;SHT30;60881;55.002;73.232;2022-08-19T03:01:27;11.56;68.82
72756;SHT30;60881;55.002;73.232;2022-08-19T03:03:59;11.55;68.75
72756;SHT30;60881;55.002;73.232;2022-08-19T03:06:28;11.55;69.06
72756;SHT30;60881;55.002;73.232;2022-08-19T03:08:55;11.59;68.39
72756;SHT30;60881;55.002;73.232;2022-08-19T03:11:24;11.63;68.90
72756;SHT30;60881;55.002;73.232;2022-08-19T03:13:52;11.66;68.60
72756;SHT30;60881;55.002;73.232;2022-08-19T03:16:21;11.69;68.95
72756;SHT30;60881;55.002;73.232;2022-08-19T03:18:48;11.73;68.51
72756;SHT30;60881;55.002;73.232;2022-08-19T03:21:17;11.79;68.42
72756;SHT30;60881;55.002;73.232;2022-08-19T03:23:49;11.76;68.20
72756;SHT30;60881;55.002;73.232;2022-08-19T03:26:16;11.80;68.73
72756;SHT30;60881;55.002;73.232;2022-08-19T03:28:44;11.87;68.60
72756;SHT30;60881;55.002;73.232;2022-08-19T03:31:26;11.91;68.20
72756;SHT30;60881;55.002;73.232;2022-08-19T03:33:54;11.90;68.27
72756;SHT30;60881;55.002;73.232;2022-08-19T03:36:25;11.93;67.90
72756;SHT30;60881;55.002;73.232;2022-08-19T03:38:54;11.91;68.21
72756;SHT30;60881;55.002;73.232;2022-08-19T03:41:28;11.90;67.55
72756;SHT30;60881;55.002;73.232;2022-08-19T03:43:57;11.91;68.31
72756;SHT30;60881;55.002;73.232;2022-08-19T03:46:28;11.96;67.35
72756;SHT30;60881;55.002;73.232;2022-08-19T03:49:00;12.03;67.89
72756;SHT30;60881;55.002;73.232;2022-08-19T03:51:32;12.10;67.51
72756;SHT30;60881;55.002;73.232;2022-08-19T03:54:01;12.14;67.66
72756;SHT30;60881;55.002;73.232;2022-08-19T03:56:29;12.17;66.95
72756;SHT30;60881;55.002;73.232;2022-08-19T03:58:57;12.14;66.77
72756;SHT30;60881;55.002;73.232;2022-08-19T04:01:27;12.20;67.12
72756;SHT30;60881;55.002;73.232;2022-08-19T04:03:58;12.27;67.20
72756;SHT30;60881;55.002;73.232;2022-08-19T04:06:28;12.28;66.49
72756;SHT30;60881;55.002;73.232;2022-08-19T04:08:57;12.28;66.04
72756;SHT30;60881;55.002;73.232;2022-08-19T04:11:29;12.36;66.08
72756;SHT30;60881;55.002;73.232;2022-08-19T04:13:57;12.47;65.91
72756;SHT30;60881;55.002;73.232;2022-08-19T04:16:27;12.60;66.07
72756;SHT30;60881;55.002;73.232;2022-08-19T04:18:56;12.67;64.54
72756;SHT30;60881;55.002;73.232;2022-08-19T04:21:25;12.73;65.38
72756;SHT30;60881;55.002;73.232;2022-08-19T04:23:53;12.83;64.89
72756;SHT30;60881;55.002;73.232;2022-08-19T04:26:32;12.84;64.15
72756;SHT30;60881;55.002;73.232;2022-08-19T04:29:00;12.89;64.66
72756;SHT30;60881;55.002;73.232;2022-08-19T04:31:29;12.94;64.72
72756;SHT30;60881;55.002;73.232;2022-08-19T04:34:09;12.98;64.55
72756;SHT30;60881;55.002;73.232;2022-08-19T04:36:41;12.99;64.16
72756;SHT30;60881;55.002;73.232;2022-08-19T04:39:14;12.99;63.40
72756;SHT30;60881;55.002;73.232;2022-08-19T04:41:42;13.05;64.69
72756;SHT30;60881;55.002;73.232;2022-08-19T04:44:27;13.12;63.48
72756;SHT30;60881;55.002;73.232;2022-08-19T04:46:57;13.14;63.09
72756;SHT30;60881;55.002;73.232;2022-08-19T04:49:23;13.14;62.08
72756;SHT30;60881;55.002;73.232;2022-08-19T04:51:52;13.18;62.92
72756;SHT30;60881;55.002;73.232;2022-08-19T04:54:21;13.34;62.39
72756;SHT30;60881;55.002;73.232;2022-08-19T04:56:49;13.43;62.08
72756;SHT30;60881;55.002;73.232;2022-08-19T04:59:17;13.58;61.22
72756;SHT30;60881;55.002;73.232;2022-08-19T05:01:45;13.72;61.54
72756;SHT30;60881;55.002;73.232;2022-08-19T05:04:18;13.86;60.68
72756;SHT30;60881;55.002;73.232;2022-08-19T05:06:52;13.87;60.77
72756;SHT30;60881;55.002;73.232;2022-08-19T05:09:20;13.89;60.48
72756;SHT30;60881;55.002;73.232;2022-08-19T05:11:52;13.90;60.00
72756;SHT30;60881;55.002;73.232;2022-08-19T05:14:29;13.95;60.20
72756;SHT30;60881;55.002;73.232;2022-08-19T05:16:56;14.02;60.92
72756;SHT30;60881;55.002;73.232;2022-08-19T05:19:24;14.10;60.15
72756;SHT30;60881;55.002;73.232;2022-08-19T05:22:08;14.09;59.64
72756;SHT30;60881;55.002;73.232;2022-08-19T05:25:06;14.29;60.87
72756;SHT30;60881;55.002;73.232;2022-08-19T05:27:32;14.37;57.23
72756;SHT30;60881;55.002;73.232;2022-08-19T05:29:59;14.41;58.63
72756;SHT30;60881;55.002;73.232;2022-08-19T05:32:27;14.51;57.60
72756;SHT30;60881;55.002;73.232;2022-08-19T05:34:53;14.57;57.97
72756;SHT30;60881;55.002;73.232;2022-08-19T05:37:20;14.61;57.58
72756;SHT30;60881;55.002;73.232;2022-08-19T05:39:48;14.57;58.22
72756;SHT30;60881;55.002;73.232;2022-08-19T05:42:15;14.65;57.69
72756;SHT30;60881;55.002;73.232;2022-08-19T05:44:44;14.64;57.53
72756;SHT30;60881;55.002;73.232;2022-08-19T05:47:13;14.61;57.31
72756;SHT30;60881;55.002;73.232;2022-08-19T05:49:41;14.64;57.37
72756;SHT30;60881;55.002;73.232;2022-08-19T05:52:11;14.70;56.66
72756;SHT30;60881;55.002;73.232;2022-08-19T05:54:48;14.68;57.54
72756;SHT30;60881;55.002;73.232;2022-08-19T05:57:18;14.77;57.62
72756;SHT30;60881;55.002;73.232;2022-08-19T05:59:45;14.73;57.74
72756;SHT30;60881;55.002;73.232;2022-08-19T06:02:14;14.84;57.38
72756;SHT30;60881;55.002;73.232;2022-08-19T06:04:40;14.97;56.43
72756;SHT30;60881;55.002;73.232;2022-08-19T06:07:08;15.09;57.61
72756;SHT30;60881;55.002;73.232;2022-08-19T06:09:35;15.17;56.84
72756;SHT30;60881;55.002;73.232;2022-08-19T06:12:03;15.14;56.73
72756;SHT30;60881;55.002;73.232;2022-08-19T06:14:32;15.08;56.34
72756;SHT30;60881;55.002;73.232;2022-08-19T06:17:02;15.15;57.54
72756;SHT30;60881;55.002;73.232;2022-08-19T06:19:30;15.21;56.26
72756;SHT30;60881;55.002;73.232;2022-08-19T06:21:58;15.19;56.86
72756;SHT30;60881;55.002;73.232;2022-08-19T06:24:26;15.29;56.29
72756;SHT30;60881;55.002;73.232;2022-08-19T06:27:01;15.29;56.00
72756;SHT30;60881;55.002;73.232;2022-08-19T06:29:29;15.32;56.33
72756;SHT30;60881;55.002;73.232;2022-08-19T06:31:58;15.36;56.91
72756;SHT30;60881;55.002;73.232;2022-08-19T06:34:27;15.39;55.61
72756;SHT30;60881;55.002;73.232;2022-08-19T06:36:58;15.49;54.93
72756;SHT30;60881;55.002;73.232;2022-08-19T06:39:34;15.58;55.30
72756;SHT30;60881;55.002;73.232;2022-08-19T06:42:03;15.56;56.12
72756;SHT30;60881;55.002;73.232;2022-08-19T06:44:34;15.63;56.07
72756;SHT30;60881;55.002;73.232;2022-08-19T06:47:03;15.69;56.15
72756;SHT30;60881;55.002;73.232;2022-08-19T06:49:30;15.59;56.35
72756;SHT30;60881;55.002;73.232;2022-08-19T06:51:58;15.43;57.68
72756;SHT30;60881;55.002;73.232;2022-08-19T06:54:25;15.32;57.05
72756;SHT30;60881;55.002;73.232;2022-08-19T06:57:01;15.19;58.37
72756;SHT30;60881;55.002;73.232;2022-08-19T06:59:30;15.17;57.26
72756;SHT30;60881;55.002;73.232;2022-08-19T07:02:01;15.04;58.05
72756;SHT30;60881;55.002;73.232;2022-08-19T07:04:32;14.98;57.95
72756;SHT30;60881;55.002;73.232;2022-08-19T07:07:00;14.95;58.16
72756;SHT30;60881;55.002;73.232;2022-08-19T07:09:29;14.81;58.66
72756;SHT30;60881;55.002;73.232;2022-08-19T07:11:58;14.73;59.39
72756;SHT30;60881;55.002;73.232;2022-08-19T07:14:27;14.68;59.66
72756;SHT30;60881;55.002;73.232;2022-08-19T07:16:55;14.61;59.90
72756;SHT30;60881;55.002;73.232;2022-08-19T07:19:25;14.53;59.31
72756;SHT30;60881;55.002;73.232;2022-08-19T07:21:55;14.43;60.13
72756;SHT30;60881;55.002;73.232;2022-08-19T07:24:25;14.41;60.28
72756;SHT30;60881;55.002;73.232;2022-08-19T07:26:53;14.44;60.15
72756;SHT30;60881;55.002;73.232;2022-08-19T07:29:21;14.48;61.20
72756;SHT30;60881;55.002;73.232;2022-08-19T07:31:50;14.51;61.00
72756;SHT30;60881;55.002;73.232;2022-08-19T07:34:17;14.54;60.68
72756;SHT30;60881;55.002;73.232;2022-08-19T07:36:44;14.56;60.91
72756;SHT30;60881;55.002;73.232;2022-08-19T07:39:20;14.56;60.79
72756;SHT30;60881;55.002;73.232;2022-08-19T07:41:48;14.50;61.12
72756;SHT30;60881;55.002;73.232;2022-08-19T07:44:17;14.47;60.41
72756;SHT30;60881;55.002;73.232;2022-08-19T07:46:56;14.43;61.14
72756;SHT30;60881;55.002;73.232;2022-08-19T07:49:23;14.43;61.69
72756;SHT30;60881;55.002;73.232;2022-08-19T07:51:55;14.43;61.70
72756;SHT30;60881;55.002;73.232;2022-08-19T07:54:23;14.47;61.66
72756;SHT30;60881;55.002;73.232;2022-08-19T07:56:50;14.50;61.83
72756;SHT30;60881;55.002;73.232;2022-08-19T07:59:21;14.56;61.89
72756;SHT30;60881;55.002;73.232;2022-08-19T08:01:48;14.60;61.65
72756;SHT30;60881;55.002;73.232;2022-08-19T08:04:16;14.61;61.57
72756;SHT30;60881;55.002;73.232;2022-08-19T08:07:04;14.63;62.06
72756;SHT30;60881;55.002;73.232;2022-08-19T08:09:51;14.70;61.19
72756;SHT30;60881;55.002;73.232;2022-08-19T08:12:22;14.68;61.62
72756;SHT30;60881;55.002;73.232;2022-08-19T08:14:55;14.78;61.33
72756;SHT30;60881;55.002;73.232;2022-08-19T08:17:25;14.81;60.80
72756;SHT30;60881;55.002;73.232;2022-08-19T08:19:53;14.84;61.24
72756;SHT30;60881;55.002;73.232;2022-08-19T08:22:21;14.87;60.77
72756;SHT30;60881;55.002;73.232;2022-08-19T08:25:11;14.88;61.10
72756;SHT30;60881;55.002;73.232;2022-08-19T08:27:40;14.94;61.18
72756;SHT30;60881;55.002;73.232;2022-08-19T08:30:10;14.94;60.89
72756;SHT30;60881;55.002;73.232;2022-08-19T08:32:39;14.97;60.91
72756;SHT30;60881;55.002;73.232;2022-08-19T08:35:17;14.95;61.06
72756;SHT30;60881;55.002;73.232;2022-08-19T08:37:46;14.92;61.63
72756;SHT30;60881;55.002;73.232;2022-08-19T08:45:51;15.04;61.57
72756;SHT30;60881;55.002;73.232;2022-08-19T08:51:04;15.05;61.62
72756;SHT30;60881;55.002;73.232;2022-08-19T08:53:32;15.09;61.97
72756;SHT30;60881;55.002;73.232;2022-08-19T08:56:03;15.15;61.87
72756;SHT30;60881;55.002;73.232;2022-08-19T09:01:11;15.17;61.91
72756;SHT30;60881;55.002;73.232;2022-08-19T09:03:42;15.19;62.00
72756;SHT30;60881;55.002;73.232;2022-08-19T09:06:44;15.21;61.56
72756;SHT30;60881;55.002;73.232;2022-08-19T09:09:34;15.18;61.84
72756;SHT30;60881;55.002;73.232;2022-08-19T09:14:59;14.95;63.97
72756;SHT30;60881;55.002;73.232;2022-08-19T09:17:30;14.89;64.70
72756;SHT30;60881;55.002;73.232;2022-08-19T09:20:00;14.88;64.90
72756;SHT30;60881;55.002;73.232;2022-08-19T09:22:32;14.84;64.73
72756;SHT30;60881;55.002;73.232;2022-08-19T09:24:59;14.89;64.47
72756;SHT30;60881;55.002;73.232;2022-08-19T09:27:27;14.89;64.17
72756;SHT30;60881;55.002;73.232;2022-08-19T09:29:54;14.91;64.30
72756;SHT30;60881;55.002;73.232;2022-08-19T09:32:22;14.95;64.38
72756;SHT30;60881;55.002;73.232;2022-08-19T09:34:48;14.95;63.96
72756;SHT30;60881;55.002;73.232;2022-08-19T09:37:15;14.91;64.34
72756;SHT30;60881;55.002;73.232;2022-08-19T09:39:42;14.94;64.87
72756;SHT30;60881;55.002;73.232;2022-08-19T09:42:11;14.92;64.77
72756;SHT30;60881;55.002;73.232;2022-08-19T09:44:40;14.81;64.72
72756;SHT30;60881;55.002;73.232;2022-08-19T09:47:08;14.80;64.85
72756;SHT30;60881;55.002;73.232;2022-08-19T09:49:35;14.70;65.58
72756;SHT30;60881;55.002;73.232;2022-08-19T09:52:02;14.67;65.99
72756;SHT30;60881;55.002;73.232;2022-08-19T09:54:29;14.64;66.84
72756;SHT30;60881;55.002;73.232;2022-08-19T09:56:57;14.57;66.70
72756;SHT30;60881;55.002;73.232;2022-08-19T09:59:29;14.50;66.96
72756;SHT30;60881;55.002;73.232;2022-08-19T10:01:56;14.44;67.61
72756;SHT30;60881;55.002;73.232;2022-08-19T10:04:33;14.40;68.58
72756;SHT30;60881;55.002;73.232;2022-08-19T10:07:19;14.37;69.88
72756;SHT30;60881;55.002;73.232;2022-08-19T10:09:48;14.31;70.76
72756;SHT30;60881;55.002;73.232;2022-08-19T10:12:19;14.24;72.02
72756;SHT30;60881;55.002;73.232;2022-08-19T10:14:51;14.16;72.79
72756;SHT30;60881;55.002;73.232;2022-08-19T10:17:23;14.03;73.11
72756;SHT30;60881;55.002;73.232;2022-08-19T10:19:52;13.93;73.66
72756;SHT30;60881;55.002;73.232;2022-08-19T10:22:25;13.89;74.28
72756;SHT30;60881;55.002;73.232;2022-08-19T10:24:52;13.85;75.27
72756;SHT30;60881;55.002;73.232;2022-08-19T10:27:19;13.85;75.03
72756;SHT30;60881;55.002;73.232;2022-08-19T10:29:55;13.79;75.75
72756;SHT30;60881;55.002;73.232;2022-08-19T10:32:32;13.76;76.04
72756;SHT30;60881;55.002;73.232;2022-08-19T10:35:02;13.72;77.37
72756;SHT30;60881;55.002;73.232;2022-08-19T10:37:31;13.70;77.63
72756;SHT30;60881;55.002;73.232;2022-08-19T10:39:59;13.62;77.75
72756;SHT30;60881;55.002;73.232;2022-08-19T10:42:27;13.55;78.42
72756;SHT30;60881;55.002;73.232;2022-08-19T10:44:53;13.53;78.55
72756;SHT30;60881;55.002;73.232;2022-08-19T10:47:21;13.52;78.73
72756;SHT30;60881;55.002;73.232;2022-08-19T10:49:51;13.56;79.10
72756;SHT30;60881;55.002;73.232;2022-08-19T10:52:36;13.56;79.53
72756;SHT30;60881;55.002;73.232;2022-08-19T10:55:06;13.55;79.43
72756;SHT30;60881;55.002;73.232;2022-08-19T10:57:51;13.52;79.62
72756;SHT30;60881;55.002;73.232;2022-08-19T11:00:20;13.56;80.01
72756;SHT30;60881;55.002;73.232;2022-08-19T11:02:49;13.62;80.07
72756;SHT30;60881;55.002;73.232;2022-08-19T11:05:16;13.62;79.53
72756;SHT30;60881;55.002;73.232;2022-08-19T11:07:44;13.62;79.75
72756;SHT30;60881;55.002;73.232;2022-08-19T11:10:15;13.66;79.63
72756;SHT30;60881;55.002;73.232;2022-08-19T11:12:45;13.72;79.87
72756;SHT30;60881;55.002;73.232;2022-08-19T11:15:13;13.75;79.69
72756;SHT30;60881;55.002;73.232;2022-08-19T11:17:40;13.79;79.06
72756;SHT30;60881;55.002;73.232;2022-08-19T11:20:10;13.85;79.35
72756;SHT30;60881;55.002;73.232;2022-08-19T11:22:38;13.86;79.64
72756;SHT30;60881;55.002;73.232;2022-08-19T11:25:07;13.87;78.19
72756;SHT30;60881;55.002;73.232;2022-08-19T11:27:33;13.83;78.50
72756;SHT30;60881;55.002;73.232;2022-08-19T11:29:59;13.82;78.75
72756;SHT30;60881;55.002;73.232;2022-08-19T11:32:37;13.86;78.98
72756;SHT30;60881;55.002;73.232;2022-08-19T11:35:03;13.89;78.96
72756;SHT30;60881;55.002;73.232;2022-08-19T11:37:31;13.83;79.21
72756;SHT30;60881;55.002;73.232;2022-08-19T11:40:01;13.85;79.31
72756;SHT30;60881;55.002;73.232;2022-08-19T11:42:27;13.86;79.32
72756;SHT30;60881;55.002;73.232;2022-08-19T11:45:12;13.83;79.16
72756;SHT30;60881;55.002;73.232;2022-08-19T11:47:40;13.80;79.24
72756;SHT30;60881;55.002;73.232;2022-08-19T11:50:07;13.79;79.01
72756;SHT30;60881;55.002;73.232;2022-08-19T11:52:34;13.77;79.49
72756;SHT30;60881;55.002;73.232;2022-08-19T11:55:01;13.75;80.17
72756;SHT30;60881;55.002;73.232;2022-08-19T11:57:28;13.77;79.85
72756;SHT30;60881;55.002;73.232;2022-08-19T12:00:00;13.75;80.92
72756;SHT30;60881;55.002;73.232;2022-08-19T12:02:27;13.77;80.82
72756;SHT30;60881;55.002;73.232;2022-08-19T12:04:59;13.76;81.22
72756;SHT30;60881;55.002;73.232;2022-08-19T12:07:34;13.77;81.12
72756;SHT30;60881;55.002;73.232;2022-08-19T12:10:02;13.77;81.37
72756;SHT30;60881;55.002;73.232;2022-08-19T12:12:29;13.76;81.59
72756;SHT30;60881;55.002;73.232;2022-08-19T12:14:55;13.77;81.71
72756;SHT30;60881;55.002;73.232;2022-08-19T12:17:25;13.79;81.19
72756;SHT30;60881;55.002;73.232;2022-08-19T12:19:54;13.77;81.17
72756;SHT30;60881;55.002;73.232;2022-08-19T12:22:20;13.82;80.69
72756;SHT30;60881;55.002;73.232;2022-08-19T12:24:48;13.85;81.19
72756;SHT30;60881;55.002;73.232;2022-08-19T12:27:17;13.90;79.87
72756;SHT30;60881;55.002;73.232;2022-08-19T12:29:44;13.97;80.14
72756;SHT30;60881;55.002;73.232;2022-08-19T12:32:10;14.06;80.17
72756;SHT30;60881;55.002;73.232;2022-08-19T12:34:37;14.12;80.64
72756;SHT30;60881;55.002;73.232;2022-08-19T12:37:05;14.14;80.38
72756;SHT30;60881;55.002;73.232;2022-08-19T12:39:40;14.17;80.41
72756;SHT30;60881;55.002;73.232;2022-08-19T12:42:09;14.21;80.34
72756;SHT30;60881;55.002;73.232;2022-08-19T12:44:42;14.23;80.50
72756;SHT30;60881;55.002;73.232;2022-08-19T12:47:11;14.30;81.24
72756;SHT30;60881;55.002;73.232;2022-08-19T12:49:40;14.37;81.12
72756;SHT30;60881;55.002;73.232;2022-08-19T12:52:07;14.41;80.18
72756;SHT30;60881;55.002;73.232;2022-08-19T12:54:35;14.43;80.71
72756;SHT30;60881;55.002;73.232;2022-08-19T12:57:06;14.43;80.27
72756;SHT30;60881;55.002;73.232;2022-08-19T12:59:35;14.40;80.63
72756;SHT30;60881;55.002;73.232;2022-08-19T13:02:05;14.44;80.38
72756;SHT30;60881;55.002;73.232;2022-08-19T13:04:43;14.50;80.62
72756;SHT30;60881;55.002;73.232;2022-08-19T13:07:09;14.50;80.38
72756;SHT30;60881;55.002;73.232;2022-08-19T13:09:36;14.50;80.18
72756;SHT30;60881;55.002;73.232;2022-08-19T13:12:03;14.43;80.07
72756;SHT30;60881;55.002;73.232;2022-08-19T13:14:37;14.38;81.07
72756;SHT30;60881;55.002;73.232;2022-08-19T13:17:04;14.40;80.97
72756;SHT30;60881;55.002;73.232;2022-08-19T13:19:30;14.33;81.20
72756;SHT30;60881;55.002;73.232;2022-08-19T13:21:57;14.37;80.79
72756;SHT30;60881;55.002;73.232;2022-08-19T13:24:25;14.33;81.25
72756;SHT30;60881;55.002;73.232;2022-08-19T13:26:51;14.36;81.32
72756;SHT30;60881;55.002;73.232;2022-08-19T13:29:19;14.37;80.96
72756;SHT30;60881;55.002;73.232;2022-08-19T13:32:06;14.33;80.49
72756;SHT30;60881;55.002;73.232;2022-08-19T13:34:51;14.23;80.65
72756;SHT30;60881;55.002;73.232;2022-08-19T13:37:17;14.16;81.51
72756;SHT30;60881;55.002;73.232;2022-08-19T13:40:20;14.12;81.76
72756;SHT30;60881;55.002;73.232;2022-08-19T13:42:51;14.07;82.18
72756;SHT30;60881;55.002;73.232;2022-08-19T13:45:23;14.03;81.96
72756;SHT30;60881;55.002;73.232;2022-08-19T13:48:01;13.99;82.36
72756;SHT30;60881;55.002;73.232;2022-08-19T13:50:30;13.96;81.85
72756;SHT30;60881;55.002;73.232;2022-08-19T13:53:00;13.95;82.15
72756;SHT30;60881;55.002;73.232;2022-08-19T13:55:32;13.91;82.03
72756;SHT30;60881;55.002;73.232;2022-08-19T13:57:59;13.90;81.80
72756;SHT30;60881;55.002;73.232;2022-08-19T14:00:32;13.86;82.22
72756;SHT30;60881;55.002;73.232;2022-08-19T14:03:09;13.83;82.24
72756;SHT30;60881;55.002;73.232;2022-08-19T14:05:36;13.80;82.43
72756;SHT30;60881;55.002;73.232;2022-08-19T14:08:03;13.77;82.40
72756;SHT30;60881;55.002;73.232;2022-08-19T14:10:29;13.80;82.62
72756;SHT30;60881;55.002;73.232;2022-08-19T14:13:02;13.75;82.66
72756;SHT30;60881;55.002;73.232;2022-08-19T14:15:29;13.77;82.66
72756;SHT30;60881;55.002;73.232;2022-08-19T14:17:56;13.73;82.78
72756;SHT30;60881;55.002;73.232;2022-08-19T14:20:22;13.77;82.97
72756;SHT30;60881;55.002;73.232;2022-08-19T14:23:01;13.80;82.75
72756;SHT30;60881;55.002;73.232;2022-08-19T14:25:33;13.80;82.66
72756;SHT30;60881;55.002;73.232;2022-08-19T14:28:00;13.82;82.69
72756;SHT30;60881;55.002;73.232;2022-08-19T14:30:32;13.82;82.63
72756;SHT30;60881;55.002;73.232;2022-08-19T14:33:04;13.82;82.64
72756;SHT30;60881;55.002;73.232;2022-08-19T14:35:40;13.85;82.59
72756;SHT30;60881;55.002;73.232;2022-08-19T14:38:16;13.83;82.79
72756;SHT30;60881;55.002;73.232;2022-08-19T14:40:44;13.83;82.91
72756;SHT30;60881;55.002;73.232;2022-08-19T14:43:17;13.83;82.85
72756;SHT30;60881;55.002;73.232;2022-08-19T14:45:49;13.80;83.00
72756;SHT30;60881;55.002;73.232;2022-08-19T14:48:21;13.82;82.98
72756;SHT30;60881;55.002;73.232;2022-08-19T14:50:48;13.79;83.20
72756;SHT30;60881;55.002;73.232;2022-08-19T14:53:16;13.77;83.13
72756;SHT30;60881;55.002;73.232;2022-08-19T14:55:48;13.77;83.23
72756;SHT30;60881;55.002;73.232;2022-08-19T14:58:15;13.77;83.08
72756;SHT30;60881;55.002;73.232;2022-08-19T15:00:42;13.70;83.39
72756;SHT30;60881;55.002;73.232;2022-08-19T15:03:14;13.72;83.40
72756;SHT30;60881;55.002;73.232;2022-08-19T15:05:45;13.73;83.54
72756;SHT30;60881;55.002;73.232;2022-08-19T15:08:12;13.73;83.40
72756;SHT30;60881;55.002;73.232;2022-08-19T15:10:44;13.69;83.61
72756;SHT30;60881;55.002;73.232;2022-08-19T15:13:21;13.67;83.46
72756;SHT30;60881;55.002;73.232;2022-08-19T15:15:48;13.69;83.29
72756;SHT30;60881;55.002;73.232;2022-08-19T15:18:15;13.70;83.31
72756;SHT30;60881;55.002;73.232;2022-08-19T15:20:52;13.66;83.12
72756;SHT30;60881;55.002;73.232;2022-08-19T15:23:20;13.69;83.12
72756;SHT30;60881;55.002;73.232;2022-08-19T15:25:48;13.67;82.82
72756;SHT30;60881;55.002;73.232;2022-08-19T15:28:22;13.62;83.39
72756;SHT30;60881;55.002;73.232;2022-08-19T15:30:48;13.62;83.17
72756;SHT30;60881;55.002;73.232;2022-08-19T15:33:16;13.61;83.27
72756;SHT30;60881;55.002;73.232;2022-08-19T15:35:47;13.66;83.14
72756;SHT30;60881;55.002;73.232;2022-08-19T15:38:20;13.66;83.16
72756;SHT30;60881;55.002;73.232;2022-08-19T15:40:57;13.66;83.18
72756;SHT30;60881;55.002;73.232;2022-08-19T15:43:44;13.65;83.21
72756;SHT30;60881;55.002;73.232;2022-08-19T15:46:22;13.63;83.48
72756;SHT30;60881;55.002;73.232;2022-08-19T15:48:50;13.62;83.63
72756;SHT30;60881;55.002;73.232;2022-08-19T15:51:19;13.61;83.77